sensor_id;sensor_type;location;lat;lon;timestamp;temperature;humidity
2565;DHT22;1292;48.020;7.822;2022-12-18T06:45:36;-6.40;99.90
2565;DHT22;1292;48.020;7.822;2022-12-18T06:48:03;-6.20;99.90
2565;DHT22;1292;48.020;7.822;2022-12-18T06:50:30;-6.20;99.90
2565;DHT22;1292;48.020;7.822;2022-12-18T06:52:56;-6.20;99.90
2565;DHT22;1292;48.020;7.822;2022-12-18T06:55:23;-6.20;99.90
2565;DHT22;1292;48.020;7.822;2022-12-18T06:57:50;-6.30;99.90
2565;DHT22;1292;48.020;7.822;2022-12-18T07:00:17;-6.20;99.90
2565;DHT22;1292;48.020;7.822;2022-12-18T07:02:46;-6.20;99.90
2565;DHT22;1292;48.020;7.822;2022-12-18T07:05:13;-6.30;99.90
2565;DHT22;1292;48.020;7.822;2022-12-18T07:07:39;-6.40;99.90
2565;DHT22;1292;48.020;7.822;2022-12-18T07:10:07;-6.20;99.90
2565;DHT22;1292;48.020;7.822;2022-12-18T07:12:34;-6.20;99.90
2565;DHT22;1292;48.020;7.822;2022-12-18T07:15:01;-6.20;99.90
2565;DHT22;1292;48.020;7.822;2022-12-18T07:17:27;-6.20;99.90
2565;DHT22;1292;48.020;7.822;2022-12-18T07:19:56;-6.20;99.90
2565;DHT22;1292;48.020;7.822;2022-12-18T07:22:24;-6.20;99.90
2565;DHT22;1292;48.020;7.822;2022-12-18T07:24:51;-6.20;99.90
2565;DHT22;1292;48.020;7.822;2022-12-18T07:27:18;-6.20;99.90
2565;DHT22;1292;48.020;7.822;2022-12-18T07:29:45;-6.20;99.90
2565;DHT22;1292;48.020;7.822;2022-12-18T07:32:12;-6.20;99.90
2565;DHT22;1292;48.020;7.822;2022-12-18T07:34:38;-6.20;99.90
2565;DHT22;1292;48.020;7.822;2022-12-18T07:37:07;-6.20;99.90
2565;DHT22;1292;48.020;7.822;2022-12-18T07:39:34;-6.20;99.90
2565;DHT22;1292;48.020;7.822;2022-12-18T07:42:00;-6.20;99.90
2565;DHT22;1292;48.020;7.822;2022-12-18T07:44:45;-6.20;99.90
2565;DHT22;1292;48.020;7.822;2022-12-18T07:47:11;-6.30;99.90
2565;DHT22;1292;48.020;7.822;2022-12-18T07:49:38;-6.50;99.90
2565;DHT22;1292;48.020;7.822;2022-12-18T07:52:06;-6.50;99.90
2565;DHT22;1292;48.020;7.822;2022-12-18T07:54:35;-6.50;99.90
2565;DHT22;1292;48.020;7.822;2022-12-18T07:57:01;-6.70;99.90
2565;DHT22;1292;48.020;7.822;2022-12-18T07:59:28;-6.70;99.90
2565;DHT22;1292;48.020;7.822;2022-12-18T08:01:55;-6.70;99.90
2565;DHT22;1292;48.020;7.822;2022-12-18T08:04:22;-6.70;99.90
2565;DHT22;1292;48.020;7.822;2022-12-18T08:06:49;-6.70;99.90
2565;DHT22;1292;48.020;7.822;2022-12-18T08:09:17;-6.60;99.90
2565;DHT22;1292;48.020;7.822;2022-12-18T08:11:44;-6.50;99.90
2565;DHT22;1292;48.020;7.822;2022-12-18T08:14:11;-6.40;99.90
2565;DHT22;1292;48.020;7.822;2022-12-18T08:16:37;-6.40;99.90
2565;DHT22;1292;48.020;7.822;2022-12-18T08:19:05;-6.50;99.90
2565;DHT22;1292;48.020;7.822;2022-12-18T08:21:32;-6.40;99.90
2565;DHT22;1292;48.020;7.822;2022-12-18T08:24:00;-6.40;99.90
2565;DHT22;1292;48.020;7.822;2022-12-18T08:26:30;-6.40;99.90
2565;DHT22;1292;48.020;7.822;2022-12-18T08:28:59;-6.30;99.90
2565;DHT22;1292;48.020;7.822;2022-12-18T08:31:27;-6.10;99.90
2565;DHT22;1292;48.020;7.822;2022-12-18T08:33:54;-6.10;99.90
2565;DHT22;1292;48.020;7.822;2022-12-18T08:36:22;-5.90;99.90
2565;DHT22;1292;48.020;7.822;2022-12-18T08:38:49;-5.90;99.90
2565;DHT22;1292;48.020;7.822;2022-12-18T08:41:17;-5.80;99.90
2565;DHT22;1292;48.020;7.822;2022-12-18T08:43:46;-5.80;99.90
2565;DHT22;1292;48.020;7.822;2022-12-18T08:46:35;-5.80;99.90
2565;DHT22;1292;48.020;7.822;2022-12-18T08:49:03;-5.70;99.90
2565;DHT22;1292;48.020;7.822;2022-12-18T08:51:30;-5.60;99.90
2565;DHT22;1292;48.020;7.822;2022-12-18T08:53:57;-5.60;99.90
2565;DHT22;1292;48.020;7.822;2022-12-18T08:56:24;-5.70;99.90
2565;DHT22;1292;48.020;7.822;2022-12-18T08:58:53;-5.60;99.90
2565;DHT22;1292;48.020;7.822;2022-12-18T09:01:21;-5.60;99.90
2565;DHT22;1292;48.020;7.822;2022-12-18T09:03:48;-5.50;99.90
2565;DHT22;1292;48.020;7.822;2022-12-18T09:06:15;-5.50;99.90
2565;DHT22;1292;48.020;7.822;2022-12-18T09:08:43;-5.40;99.90
2565;DHT22;1292;48.020;7.822;2022-12-18T09:11:14;-5.50;99.90
2565;DHT22;1292;48.020;7.822;2022-12-18T09:13:42;-5.40;99.90
2565;DHT22;1292;48.020;7.822;2022-12-18T09:16:10;-5.50;99.90
2565;DHT22;1292;48.020;7.822;2022-12-18T09:18:37;-5.40;99.90
2565;DHT22;1292;48.020;7.822;2022-12-18T09:21:12;-5.20;99.90
2565;DHT22;1292;48.020;7.822;2022-12-18T09:23:39;-5.10;99.90
2565;DHT22;1292;48.020;7.822;2022-12-18T09:26:06;-5.10;99.90
2565;DHT22;1292;48.020;7.822;2022-12-18T09:28:32;-5.10;99.90
2565;DHT22;1292;48.020;7.822;2022-12-18T09:31:04;-5.00;99.90
2565;DHT22;1292;48.020;7.822;2022-12-18T09:33:33;-5.10;99.90
2565;DHT22;1292;48.020;7.822;2022-12-18T09:36:02;-5.00;99.90
2565;DHT22;1292;48.020;7.822;2022-12-18T09:38:29;-5.00;99.90
2565;DHT22;1292;48.020;7.822;2022-12-18T09:40:59;-5.10;99.90
2565;DHT22;1292;48.020;7.822;2022-12-18T09:43:30;-5.00;99.90
2565;DHT22;1292;48.020;7.822;2022-12-18T09:46:04;-4.90;99.90
2565;DHT22;1292;48.020;7.822;2022-12-18T09:48:36;-4.90;99.90
2565;DHT22;1292;48.020;7.822;2022-12-18T09:51:09;-4.90;99.90
2565;DHT22;1292;48.020;7.822;2022-12-18T09:53:40;-4.80;99.90
2565;DHT22;1292;48.020;7.822;2022-12-18T09:56:12;-4.90;99.90
2565;DHT22;1292;48.020;7.822;2022-12-18T09:58:47;-4.70;99.90
2565;DHT22;1292;48.020;7.822;2022-12-18T10:01:22;-4.70;99.90
2565;DHT22;1292;48.020;7.822;2022-12-18T10:03:51;-4.70;99.90
2565;DHT22;1292;48.020;7.822;2022-12-18T10:06:23;-4.70;99.90
2565;DHT22;1292;48.020;7.822;2022-12-18T10:08:56;-4.70;99.90
2565;DHT22;1292;48.020;7.822;2022-12-18T10:11:32;-4.50;99.90
2565;DHT22;1292;48.020;7.822;2022-12-18T10:14:09;-4.40;99.90
2565;DHT22;1292;48.020;7.822;2022-12-18T10:16:46;-4.40;99.90
2565;DHT22;1292;48.020;7.822;2022-12-18T10:19:26;-4.30;99.90
2565;DHT22;1292;48.020;7.822;2022-12-18T10:22:02;-4.20;99.90
2565;DHT22;1292;48.020;7.822;2022-12-18T10:24:38;-4.20;99.90
2565;DHT22;1292;48.020;7.822;2022-12-18T10:27:13;-4.30;99.90
2565;DHT22;1292;48.020;7.822;2022-12-18T10:29:42;-4.20;99.90
2565;DHT22;1292;48.020;7.822;2022-12-18T10:32:14;-4.10;99.90
2565;DHT22;1292;48.020;7.822;2022-12-18T10:34:45;-4.10;99.90
2565;DHT22;1292;48.020;7.822;2022-12-18T10:37:17;-4.00;99.90
2565;DHT22;1292;48.020;7.822;2022-12-18T10:39:44;-4.10;99.90
2565;DHT22;1292;48.020;7.822;2022-12-18T10:42:17;-4.00;99.90
2565;DHT22;1292;48.020;7.822;2022-12-18T10:44:44;-4.00;99.90
2565;DHT22;1292;48.020;7.822;2022-12-18T10:47:14;-3.90;99.90
2565;DHT22;1292;48.020;7.822;2022-12-18T10:49:52;-4.00;99.90
2565;DHT22;1292;48.020;7.822;2022-12-18T10:52:22;-4.00;99.90
2565;DHT22;1292;48.020;7.822;2022-12-18T10:54:51;-3.90;99.90
2565;DHT22;1292;48.020;7.822;2022-12-18T10:57:34;-3.80;99.90
2565;DHT22;1292;48.020;7.822;2022-12-18T11:00:21;-3.70;99.90
2565;DHT22;1292;48.020;7.822;2022-12-18T11:02:49;-3.70;99.90
2565;DHT22;1292;48.020;7.822;2022-12-18T11:05:29;-3.60;99.90
2565;DHT22;1292;48.020;7.822;2022-12-18T11:07:57;-3.40;99.90
2565;DHT22;1292;48.020;7.822;2022-12-18T11:10:29;-3.30;99.90
2565;DHT22;1292;48.020;7.822;2022-12-18T11:13:10;-3.30;99.90
2565;DHT22;1292;48.020;7.822;2022-12-18T11:15:40;-3.20;99.90
2565;DHT22;1292;48.020;7.822;2022-12-18T11:18:16;-3.20;99.90
2565;DHT22;1292;48.020;7.822;2022-12-18T11:20:50;-3.20;99.90
2565;DHT22;1292;48.020;7.822;2022-12-18T11:23:19;-3.20;99.90
2565;DHT22;1292;48.020;7.822;2022-12-18T11:25:52;-3.30;99.90
2565;DHT22;1292;48.020;7.822;2022-12-18T11:28:35;-3.20;99.90
2565;DHT22;1292;48.020;7.822;2022-12-18T11:31:16;-3.10;99.90
2565;DHT22;1292;48.020;7.822;2022-12-18T11:33:46;-3.00;99.90
2565;DHT22;1292;48.020;7.822;2022-12-18T11:36:19;-3.00;99.90
2565;DHT22;1292;48.020;7.822;2022-12-18T11:38:48;-3.00;99.90
2565;DHT22;1292;48.020;7.822;2022-12-18T11:41:20;-2.90;99.90
2565;DHT22;1292;48.020;7.822;2022-12-18T11:43:52;-2.90;99.90
2565;DHT22;1292;48.020;7.822;2022-12-18T11:46:26;-3.30;99.90
2565;DHT22;1292;48.020;7.822;2022-12-18T11:48:58;-3.20;99.90
2565;DHT22;1292;48.020;7.822;2022-12-18T11:51:34;-3.00;99.90
2565;DHT22;1292;48.020;7.822;2022-12-18T11:54:09;-2.90;99.90
2565;DHT22;1292;48.020;7.822;2022-12-18T11:56:43;-3.00;99.90
2565;DHT22;1292;48.020;7.822;2022-12-18T11:59:21;-2.90;99.90
2565;DHT22;1292;48.020;7.822;2022-12-18T12:01:54;-2.70;99.90
2565;DHT22;1292;48.020;7.822;2022-12-18T12:04:35;-2.60;99.90
2565;DHT22;1292;48.020;7.822;2022-12-18T12:07:15;-2.60;99.90
2565;DHT22;1292;48.020;7.822;2022-12-18T12:09:49;-2.50;99.90
2565;DHT22;1292;48.020;7.822;2022-12-18T12:12:31;-2.40;99.90
2565;DHT22;1292;48.020;7.822;2022-12-18T12:15:19;-2.50;99.90
2565;DHT22;1292;48.020;7.822;2022-12-18T12:17:53;-2.30;99.90
2565;DHT22;1292;48.020;7.822;2022-12-18T12:20:24;-2.40;99.90
2565;DHT22;1292;48.020;7.822;2022-12-18T12:23:00;-2.40;99.90
2565;DHT22;1292;48.020;7.822;2022-12-18T12:25:34;-2.20;99.90
2565;DHT22;1292;48.020;7.822;2022-12-18T12:28:13;-2.10;99.90
2565;DHT22;1292;48.020;7.822;2022-12-18T12:30:50;-2.00;99.90
2565;DHT22;1292;48.020;7.822;2022-12-18T12:33:27;-1.90;99.90
2565;DHT22;1292;48.020;7.822;2022-12-18T12:36:02;-1.80;99.90
2565;DHT22;1292;48.020;7.822;2022-12-18T12:38:41;-1.70;99.90
2565;DHT22;1292;48.020;7.822;2022-12-18T12:41:13;-1.70;99.90
2565;DHT22;1292;48.020;7.822;2022-12-18T12:43:57;-1.70;99.90
2565;DHT22;1292;48.020;7.822;2022-12-18T12:46:26;-1.70;99.90
2565;DHT22;1292;48.020;7.822;2022-12-18T12:48:55;-1.80;99.90
2565;DHT22;1292;48.020;7.822;2022-12-18T12:51:25;-1.90;99.90
2565;DHT22;1292;48.020;7.822;2022-12-18T12:53:55;-1.80;99.90
2565;DHT22;1292;48.020;7.822;2022-12-18T12:56:26;-1.80;99.90
2565;DHT22;1292;48.020;7.822;2022-12-18T12:58:59;-1.70;99.90
2565;DHT22;1292;48.020;7.822;2022-12-18T13:01:36;-1.60;99.90
2565;DHT22;1292;48.020;7.822;2022-12-18T13:04:15;-1.60;99.90
2565;DHT22;1292;48.020;7.822;2022-12-18T13:06:49;-1.50;99.90
2565;DHT22;1292;48.020;7.822;2022-12-18T13:09:18;-1.50;99.90
2565;DHT22;1292;48.020;7.822;2022-12-18T13:11:46;-1.60;99.90
2565;DHT22;1292;48.020;7.822;2022-12-18T13:14:33;-1.50;99.90
2565;DHT22;1292;48.020;7.822;2022-12-18T13:17:24;-1.50;99.90
2565;DHT22;1292;48.020;7.822;2022-12-18T13:20:05;-1.40;99.90
2565;DHT22;1292;48.020;7.822;2022-12-18T13:22:35;-1.40;99.90
2565;DHT22;1292;48.020;7.822;2022-12-18T13:25:31;-1.40;99.90
2565;DHT22;1292;48.020;7.822;2022-12-18T13:28:07;-1.30;99.90
2565;DHT22;1292;48.020;7.822;2022-12-18T13:30:50;-1.40;99.90
2565;DHT22;1292;48.020;7.822;2022-12-18T13:33:47;-1.30;99.90
2565;DHT22;1292;48.020;7.822;2022-12-18T13:36:30;-1.20;99.90
2565;DHT22;1292;48.020;7.822;2022-12-18T13:45:42;-1.20;99.90
2565;DHT22;1292;48.020;7.822;2022-12-18T13:48:22;-1.10;99.90
2565;DHT22;1292;48.020;7.822;2022-12-18T13:50:57;-1.00;99.90
2565;DHT22;1292;48.020;7.822;2022-12-18T13:53:27;-1.00;99.90
2565;DHT22;1292;48.020;7.822;2022-12-18T13:55:54;-1.00;99.90
2565;DHT22;1292;48.020;7.822;2022-12-18T13:58:21;-0.90;99.90
2565;DHT22;1292;48.020;7.822;2022-12-18T14:00:50;-1.00;99.90
2565;DHT22;1292;48.020;7.822;2022-12-18T14:03:21;-1.00;99.90
2565;DHT22;1292;48.020;7.822;2022-12-18T14:05:59;-1.00;99.90
2565;DHT22;1292;48.020;7.822;2022-12-18T14:08:32;-1.00;99.90
2565;DHT22;1292;48.020;7.822;2022-12-18T14:11:01;-1.00;99.90
2565;DHT22;1292;48.020;7.822;2022-12-18T14:13:32;-0.90;99.90
2565;DHT22;1292;48.020;7.822;2022-12-18T14:16:04;-0.90;99.90
2565;DHT22;1292;48.020;7.822;2022-12-18T14:18:38;-0.90;99.90
2565;DHT22;1292;48.020;7.822;2022-12-18T14:21:05;-0.80;99.90
2565;DHT22;1292;48.020;7.822;2022-12-18T14:23:35;-0.90;99.90
2565;DHT22;1292;48.020;7.822;2022-12-18T14:26:18;-0.90;99.90
2565;DHT22;1292;48.020;7.822;2022-12-18T14:28:46;-1.00;99.90
2565;DHT22;1292;48.020;7.822;2022-12-18T14:31:18;-1.00;99.90
2565;DHT22;1292;48.020;7.822;2022-12-18T14:33:46;-1.00;99.90
2565;DHT22;1292;48.020;7.822;2022-12-18T14:36:16;-1.10;99.90
2565;DHT22;1292;48.020;7.822;2022-12-18T14:38:43;-1.10;99.90
2565;DHT22;1292;48.020;7.822;2022-12-18T14:41:16;-1.10;99.90
2565;DHT22;1292;48.020;7.822;2022-12-18T14:43:45;-1.10;99.90
2565;DHT22;1292;48.020;7.822;2022-12-18T14:46:29;-1.10;99.90
2565;DHT22;1292;48.020;7.822;2022-12-18T14:48:57;-1.10;99.90
2565;DHT22;1292;48.020;7.822;2022-12-18T14:51:27;-1.10;99.90
2565;DHT22;1292;48.020;7.822;2022-12-18T14:53:56;-1.20;99.90
2565;DHT22;1292;48.020;7.822;2022-12-18T14:56:26;-1.30;99.90
2565;DHT22;1292;48.020;7.822;2022-12-18T14:58:55;-1.30;99.90
2565;DHT22;1292;48.020;7.822;2022-12-18T15:01:25;-1.20;99.90
2565;DHT22;1292;48.020;7.822;2022-12-18T15:03:55;-1.20;99.90
2565;DHT22;1292;48.020;7.822;2022-12-18T15:06:26;-1.20;99.90
2565;DHT22;1292;48.020;7.822;2022-12-18T15:08:54;-1.20;99.90
2565;DHT22;1292;48.020;7.822;2022-12-18T15:11:33;-1.20;99.90
2565;DHT22;1292;48.020;7.822;2022-12-18T15:14:03;-1.20;99.90
2565;DHT22;1292;48.020;7.822;2022-12-18T15:16:50;-1.20;99.90
2565;DHT22;1292;48.020;7.822;2022-12-18T15:19:20;-1.20;99.90
2565;DHT22;1292;48.020;7.822;2022-12-18T15:21:48;-1.20;99.90
2565;DHT22;1292;48.020;7.822;2022-12-18T15:24:20;-1.30;99.90
2565;DHT22;1292;48.020;7.822;2022-12-18T15:26:48;-1.40;99.90
2565;DHT22;1292;48.020;7.822;2022-12-18T15:29:19;-1.40;99.90
2565;DHT22;1292;48.020;7.822;2022-12-18T15:31:58;-1.40;99.90
2565;DHT22;1292;48.020;7.822;2022-12-18T15:34:27;-1.40;99.90
2565;DHT22;1292;48.020;7.822;2022-12-18T15:36:54;-1.40;99.90
2565;DHT22;1292;48.020;7.822;2022-12-18T15:39:21;-1.40;99.90
2565;DHT22;1292;48.020;7.822;2022-12-18T15:41:48;-1.40;99.90
2565;DHT22;1292;48.020;7.822;2022-12-18T15:44:38;-1.30;99.90
2565;DHT22;1292;48.020;7.822;2022-12-18T15:47:10;-1.30;99.90
2565;DHT22;1292;48.020;7.822;2022-12-18T15:49:39;-1.40;99.90
2565;DHT22;1292;48.020;7.822;2022-12-18T15:52:07;-1.50;99.90
2565;DHT22;1292;48.020;7.822;2022-12-18T15:54:38;-1.50;99.90
2565;DHT22;1292;48.020;7.822;2022-12-18T15:57:22;-1.50;99.90
2565;DHT22;1292;48.020;7.822;2022-12-18T15:59:50;-1.40;99.90
2565;DHT22;1292;48.020;7.822;2022-12-18T16:02:19;-1.40;99.90
2565;DHT22;1292;48.020;7.822;2022-12-18T16:04:49;-1.40;99.90
2565;DHT22;1292;48.020;7.822;2022-12-18T16:07:16;-1.40;99.90
2565;DHT22;1292;48.020;7.822;2022-12-18T16:09:43;-1.40;99.90
2565;DHT22;1292;48.020;7.822;2022-12-18T16:12:15;-1.40;99.90
2565;DHT22;1292;48.020;7.822;2022-12-18T16:14:43;-1.40;99.90
2565;DHT22;1292;48.020;7.822;2022-12-18T16:17:11;-1.40;99.90
2565;DHT22;1292;48.020;7.822;2022-12-18T16:19:38;-1.40;99.90
2565;DHT22;1292;48.020;7.822;2022-12-18T16:22:17;-1.40;99.90
2565;DHT22;1292;48.020;7.822;2022-12-18T16:24:45;-1.40;99.90
2565;DHT22;1292;48.020;7.822;2022-12-18T16:27:12;-1.50;99.90
2565;DHT22;1292;48.020;7.822;2022-12-18T16:29:39;-1.40;99.90
2565;DHT22;1292;48.020;7.822;2022-12-18T16:32:05;-1.50;99.90
2565;DHT22;1292;48.020;7.822;2022-12-18T16:34:34;-1.60;99.90
2565;DHT22;1292;48.020;7.822;2022-12-18T16:37:02;-1.60;99.90
2565;DHT22;1292;48.020;7.822;2022-12-18T16:39:30;-1.60;99.90
2565;DHT22;1292;48.020;7.822;2022-12-18T16:41:58;-1.60;99.90
2565;DHT22;1292;48.020;7.822;2022-12-18T16:44:26;-1.60;99.90
2565;DHT22;1292;48.020;7.822;2022-12-18T16:46:52;-1.60;99.90
2565;DHT22;1292;48.020;7.822;2022-12-18T16:49:19;-1.60;99.90
2565;DHT22;1292;48.020;7.822;2022-12-18T16:51:46;-1.50;99.90
2565;DHT22;1292;48.020;7.822;2022-12-18T16:54:13;-1.60;99.90
2565;DHT22;1292;48.020;7.822;2022-12-18T16:56:41;-1.50;99.90
2565;DHT22;1292;48.020;7.822;2022-12-18T16:59:11;-1.50;99.90
2565;DHT22;1292;48.020;7.822;2022-12-18T17:01:38;-1.50;99.90
2565;DHT22;1292;48.020;7.822;2022-12-18T17:04:07;-1.50;99.90
2565;DHT22;1292;48.020;7.822;2022-12-18T17:06:35;-1.60;99.90
2565;DHT22;1292;48.020;7.822;2022-12-18T17:09:04;-1.60;99.90
2565;DHT22;1292;48.020;7.822;2022-12-18T17:11:32;-1.60;99.90
2565;DHT22;1292;48.020;7.822;2022-12-18T17:14:05;-1.60;99.90
2565;DHT22;1292;48.020;7.822;2022-12-18T17:16:32;-1.50;99.90
2565;DHT22;1292;48.020;7.822;2022-12-18T17:19:00;-1.50;99.90
2565;DHT22;1292;48.020;7.822;2022-12-18T17:21:27;-1.50;99.90
2565;DHT22;1292;48.020;7.822;2022-12-18T17:23:54;-1.50;99.90
2565;DHT22;1292;48.020;7.822;2022-12-18T17:26:21;-1.40;99.90
2565;DHT22;1292;48.020;7.822;2022-12-18T17:28:47;-1.50;99.90
2565;DHT22;1292;48.020;7.822;2022-12-18T17:31:18;-1.50;99.90
2565;DHT22;1292;48.020;7.822;2022-12-18T17:33:46;-1.50;99.90
2565;DHT22;1292;48.020;7.822;2022-12-18T17:36:14;-1.40;99.90
2565;DHT22;1292;48.020;7.822;2022-12-18T17:38:41;-1.40;99.90
2565;DHT22;1292;48.020;7.822;2022-12-18T17:41:10;-1.40;99.90
2565;DHT22;1292;48.020;7.822;2022-12-18T17:43:37;-1.40;99.90
2565;DHT22;1292;48.020;7.822;2022-12-18T17:46:13;-1.40;99.90
2565;DHT22;1292;48.020;7.822;2022-12-18T17:48:47;-1.40;99.90
2565;DHT22;1292;48.020;7.822;2022-12-18T17:51:15;-1.40;99.90
2565;DHT22;1292;48.020;7.822;2022-12-18T17:53:43;-1.40;99.90
2565;DHT22;1292;48.020;7.822;2022-12-18T17:56:12;-1.60;99.90
2565;DHT22;1292;48.020;7.822;2022-12-18T17:58:40;-1.80;99.90
2565;DHT22;1292;48.020;7.822;2022-12-18T18:01:07;-1.80;99.90
2565;DHT22;1292;48.020;7.822;2022-12-18T18:03:34;-1.70;99.90
2565;DHT22;1292;48.020;7.822;2022-12-18T18:06:04;-1.60;99.90
2565;DHT22;1292;48.020;7.822;2022-12-18T18:08:32;-1.50;99.90
2565;DHT22;1292;48.020;7.822;2022-12-18T18:11:03;-1.50;99.90
2565;DHT22;1292;48.020;7.822;2022-12-18T18:13:44;-1.50;99.90
2565;DHT22;1292;48.020;7.822;2022-12-18T18:16:32;-1.50;99.90
2565;DHT22;1292;48.020;7.822;2022-12-18T18:19:01;-1.50;99.90
2565;DHT22;1292;48.020;7.822;2022-12-18T18:21:30;-1.50;99.90
2565;DHT22;1292;48.020;7.822;2022-12-18T18:23:59;-1.50;99.90
2565;DHT22;1292;48.020;7.822;2022-12-18T18:26:27;-1.50;99.90
2565;DHT22;1292;48.020;7.822;2022-12-18T18:28:55;-1.40;99.90
2565;DHT22;1292;48.020;7.822;2022-12-18T18:31:22;-1.40;99.90
2565;DHT22;1292;48.020;7.822;2022-12-18T18:33:50;-1.40;99.90
2565;DHT22;1292;48.020;7.822;2022-12-18T18:36:17;-1.40;99.90
2565;DHT22;1292;48.020;7.822;2022-12-18T18:38:45;-1.20;99.90
2565;DHT22;1292;48.020;7.822;2022-12-18T18:41:13;-1.40;99.90
2565;DHT22;1292;48.020;7.822;2022-12-18T18:43:40;-1.40;99.90
2565;DHT22;1292;48.020;7.822;2022-12-18T18:46:11;-1.40;99.90
2565;DHT22;1292;48.020;7.822;2022-12-18T18:48:38;-1.40;99.90
2565;DHT22;1292;48.020;7.822;2022-12-18T18:51:07;-1.40;99.90
2565;DHT22;1292;48.020;7.822;2022-12-18T18:53:35;-1.40;99.90
2565;DHT22;1292;48.020;7.822;2022-12-18T18:56:04;-1.40;99.90
2565;DHT22;1292;48.020;7.822;2022-12-18T18:58:31;-1.50;99.90
2565;DHT22;1292;48.020;7.822;2022-12-18T19:01:00;-1.50;99.90
2565;DHT22;1292;48.020;7.822;2022-12-18T19:03:27;-1.50;99.90
2565;DHT22;1292;48.020;7.822;2022-12-18T19:05:55;-1.50;99.90
2565;DHT22;1292;48.020;7.822;2022-12-18T19:08:25;-1.40;99.90
2565;DHT22;1292;48.020;7.822;2022-12-18T19:10:53;-1.30;99.90
2565;DHT22;1292;48.020;7.822;2022-12-18T19:13:24;-1.30;99.90
2565;DHT22;1292;48.020;7.822;2022-12-18T19:15:52;-1.30;99.90
2565;DHT22;1292;48.020;7.822;2022-12-18T19:18:20;-1.30;99.90
2565;DHT22;1292;48.020;7.822;2022-12-18T19:20:54;-1.30;99.90
2565;DHT22;1292;48.020;7.822;2022-12-18T19:23:21;-1.30;99.90
2565;DHT22;1292;48.020;7.822;2022-12-18T19:25:48;-1.30;99.90
2565;DHT22;1292;48.020;7.822;2022-12-18T19:28:15;-1.30;99.90
2565;DHT22;1292;48.020;7.822;2022-12-18T19:30:44;-1.20;99.90
2565;DHT22;1292;48.020;7.822;2022-12-18T19:33:11;-1.40;99.90
2565;DHT22;1292;48.020;7.822;2022-12-18T19:35:38;-1.40;99.90
2565;DHT22;1292;48.020;7.822;2022-12-18T19:38:05;-1.30;99.90
2565;DHT22;1292;48.020;7.822;2022-12-18T19:40:32;-1.30;99.90
2565;DHT22;1292;48.020;7.822;2022-12-18T19:42:58;-1.20;99.90
2565;DHT22;1292;48.020;7.822;2022-12-18T19:45:25;-1.30;99.90
2565;DHT22;1292;48.020;7.822;2022-12-18T19:47:53;-1.30;99.90
2565;DHT22;1292;48.020;7.822;2022-12-18T19:50:20;-1.20;99.90
2565;DHT22;1292;48.020;7.822;2022-12-18T19:52:47;-1.20;99.90
2565;DHT22;1292;48.020;7.822;2022-12-18T19:55:14;-1.30;99.90
2565;DHT22;1292;48.020;7.822;2022-12-18T19:57:42;-1.20;99.90
2565;DHT22;1292;48.020;7.822;2022-12-18T20:00:10;-1.20;99.90
2565;DHT22;1292;48.020;7.822;2022-12-18T20:02:38;-1.20;99.90
2565;DHT22;1292;48.020;7.822;2022-12-18T20:05:08;-1.20;99.90
2565;DHT22;1292;48.020;7.822;2022-12-18T20:07:36;-1.30;99.90
2565;DHT22;1292;48.020;7.822;2022-12-18T20:10:04;-1.20;99.90
2565;DHT22;1292;48.020;7.822;2022-12-18T20:12:31;-1.30;99.90
2565;DHT22;1292;48.020;7.822;2022-12-18T20:14:58;-1.30;99.90
2565;DHT22;1292;48.020;7.822;2022-12-18T20:17:25;-1.20;99.90
2565;DHT22;1292;48.020;7.822;2022-12-18T20:19:53;-1.20;99.90
2565;DHT22;1292;48.020;7.822;2022-12-18T20:22:21;-1.20;99.90
2565;DHT22;1292;48.020;7.822;2022-12-18T20:24:48;-1.10;99.90
2565;DHT22;1292;48.020;7.822;2022-12-18T20:27:15;-1.20;99.90
2565;DHT22;1292;48.020;7.822;2022-12-18T20:29:41;-1.20;99.90
2565;DHT22;1292;48.020;7.822;2022-12-18T20:32:08;-1.10;99.90
2565;DHT22;1292;48.020;7.822;2022-12-18T20:34:35;-1.10;99.90
2565;DHT22;1292;48.020;7.822;2022-12-18T20:37:02;-1.10;99.90
2565;DHT22;1292;48.020;7.822;2022-12-18T20:39:30;-0.90;99.90
2565;DHT22;1292;48.020;7.822;2022-12-18T20:41:58;-1.10;99.90
2565;DHT22;1292;48.020;7.822;2022-12-18T20:44:24;-1.00;99.90
2565;DHT22;1292;48.020;7.822;2022-12-18T20:46:53;-1.10;99.90
2565;DHT22;1292;48.020;7.822;2022-12-18T20:49:21;-1.10;99.90
2565;DHT22;1292;48.020;7.822;2022-12-18T20:51:51;-1.10;99.90
2565;DHT22;1292;48.020;7.822;2022-12-18T20:54:19;-1.20;99.90
2565;DHT22;1292;48.020;7.822;2022-12-18T20:56:47;-1.30;99.90
2565;DHT22;1292;48.020;7.822;2022-12-18T20:59:15;-1.40;99.90
2565;DHT22;1292;48.020;7.822;2022-12-18T21:01:42;-1.40;99.90
2565;DHT22;1292;48.020;7.822;2022-12-18T21:04:09;-1.40;99.90
2565;DHT22;1292;48.020;7.822;2022-12-18T21:06:36;-1.50;99.90
2565;DHT22;1292;48.020;7.822;2022-12-18T21:09:03;-1.50;99.90
2565;DHT22;1292;48.020;7.822;2022-12-18T21:11:32;-1.50;99.90
2565;DHT22;1292;48.020;7.822;2022-12-18T21:14:19;-1.50;99.90
2565;DHT22;1292;48.020;7.822;2022-12-18T21:16:47;-1.40;99.90
2565;DHT22;1292;48.020;7.822;2022-12-18T21:19:16;-1.40;99.90
2565;DHT22;1292;48.020;7.822;2022-12-18T21:21:43;-1.40;99.90
2565;DHT22;1292;48.020;7.822;2022-12-18T21:24:10;-1.40;99.90
2565;DHT22;1292;48.020;7.822;2022-12-18T21:26:38;-1.40;99.90
2565;DHT22;1292;48.020;7.822;2022-12-18T21:29:07;-1.40;99.90
2565;DHT22;1292;48.020;7.822;2022-12-18T21:31:37;-1.30;99.90
2565;DHT22;1292;48.020;7.822;2022-12-18T21:34:06;-1.40;99.90
2565;DHT22;1292;48.020;7.822;2022-12-18T21:36:34;-1.40;99.90
2565;DHT22;1292;48.020;7.822;2022-12-18T21:39:01;-1.20;99.90
2565;DHT22;1292;48.020;7.822;2022-12-18T21:41:28;-1.20;99.90
2565;DHT22;1292;48.020;7.822;2022-12-18T21:44:12;-1.20;99.90
2565;DHT22;1292;48.020;7.822;2022-12-18T21:46:42;-1.10;99.90
2565;DHT22;1292;48.020;7.822;2022-12-18T21:49:11;-1.00;99.90
2565;DHT22;1292;48.020;7.822;2022-12-18T21:51:39;-0.90;99.90
2565;DHT22;1292;48.020;7.822;2022-12-18T21:54:06;-0.90;99.90
2565;DHT22;1292;48.020;7.822;2022-12-18T21:56:47;-0.90;99.90
2565;DHT22;1292;48.020;7.822;2022-12-18T21:59:16;-0.80;99.90
